createdAt,value
2022-08-12T00:01:05.914Z,22.90
2022-08-12T00:02:26.312Z,22.93
2022-08-12T00:03:46.565Z,22.83
2022-08-12T00:05:07.321Z,22.78
2022-08-12T00:06:28.314Z,22.76
2022-08-12T00:07:50.870Z,22.74
2022-08-12T00:09:11.299Z,22.79
2022-08-12T00:10:31.747Z,22.78
2022-08-12T00:11:51.727Z,22.79
2022-08-12T00:13:13.981Z,22.93
2022-08-12T00:14:34.426Z,23.10
2022-08-12T00:15:54.875Z,23.25
2022-08-12T00:17:15.658Z,23.32
2022-08-12T00:18:35.701Z,23.38
2022-08-12T00:19:56.166Z,23.43
2022-08-12T00:21:16.318Z,23.47
2022-08-12T00:22:37.198Z,23.50
2022-08-12T00:24:00.728Z,23.55
2022-08-12T00:26:01.238Z,23.64
2022-08-12T00:27:03.025Z,23.74
2022-08-12T00:28:24.053Z,23.80
2022-08-12T00:29:47.787Z,23.85
2022-08-12T00:31:08.811Z,23.89
2022-08-12T00:32:35.447Z,23.95
2022-08-12T00:33:57.006Z,23.96
2022-08-12T00:35:18.907Z,24.00
2022-08-12T00:36:44.991Z,23.82
2022-08-12T00:38:05.261Z,23.84
2022-08-12T00:39:25.492Z,23.80
2022-08-12T00:40:46.532Z,23.79
2022-08-12T00:42:08.620Z,23.86
2022-08-12T00:43:14.671Z,23.95
2022-08-12T00:44:19.232Z,24.00
2022-08-12T00:45:24.519Z,23.98
2022-08-12T00:46:42.322Z,23.98
2022-08-12T00:47:44.573Z,24.05
2022-08-12T00:48:47.992Z,24.09
2022-08-12T00:49:50.404Z,24.12
2022-08-12T00:50:55.504Z,24.12
2022-08-12T00:52:11.883Z,24.07
2022-08-12T00:53:15.081Z,24.05
2022-08-12T00:54:20.878Z,24.08
2022-08-12T00:55:22.675Z,24.00
2022-08-12T00:56:28.641Z,23.85
2022-08-12T00:57:38.768Z,23.88
2022-08-12T00:58:47.937Z,23.91
2022-08-12T00:59:59.943Z,23.80
2022-08-12T01:01:06.734Z,23.69
2022-08-12T01:02:12.641Z,23.50
2022-08-12T01:03:18.565Z,23.38
2022-08-12T01:04:40.064Z,23.32
2022-08-12T01:06:03.676Z,23.19
2022-08-12T01:07:24.558Z,23.01
2022-08-12T01:08:44.591Z,22.94
2022-08-12T01:10:06.510Z,22.88
2022-08-12T01:11:27.602Z,22.85
2022-08-12T01:12:29.920Z,22.78
2022-08-12T01:13:34.912Z,22.68
2022-08-12T01:14:37.303Z,22.66
2022-08-12T01:15:39.520Z,22.67
2022-08-12T01:16:41.419Z,22.61
2022-08-12T01:17:45.223Z,22.51
2022-08-12T01:18:47.826Z,22.41
2022-08-12T01:19:55.923Z,22.34
2022-08-12T01:21:16.669Z,22.26
2022-08-12T01:22:33.341Z,22.18
2022-08-12T01:23:59.582Z,22.16
2022-08-12T01:25:24.802Z,22.05
2022-08-12T01:26:26.681Z,21.98
2022-08-12T01:27:29.919Z,21.95
2022-08-12T01:28:35.078Z,21.92
2022-08-12T01:29:42.239Z,21.87
2022-08-12T01:30:44.301Z,21.83
2022-08-12T01:31:50.063Z,21.80
2022-08-12T01:32:56.057Z,21.77
2022-08-12T01:34:37.005Z,21.76
2022-08-12T01:35:44.586Z,21.74
2022-08-12T01:37:02.288Z,21.73
2022-08-12T01:38:08.403Z,21.67
2022-08-12T01:39:10.949Z,21.61
2022-08-12T01:40:35.259Z,21.58
2022-08-12T01:41:40.691Z,21.55
2022-08-12T01:42:51.070Z,21.53
2022-08-12T01:43:55.108Z,21.51
2022-08-12T01:44:58.007Z,21.46
2022-08-12T01:46:12.664Z,21.41
2022-08-12T01:47:51.813Z,21.43
2022-08-12T01:49:31.872Z,21.39
2022-08-12T01:52:11.501Z,21.33
2022-08-12T01:52:43.429Z,21.23
2022-08-12T01:54:04.626Z,21.16
2022-08-12T01:55:07.351Z,21.18
2022-08-12T01:56:11.486Z,21.18
2022-08-12T01:57:59.104Z,21.11
2022-08-12T01:59:22.531Z,21.06
2022-08-12T02:00:36.067Z,21.05
2022-08-12T02:01:50.399Z,21.01
2022-08-12T02:03:12.405Z,20.97
2022-08-12T02:04:41.693Z,20.95
2022-08-12T02:06:20.567Z,20.96
2022-08-12T02:08:22.478Z,20.94
2022-08-12T02:10:00.007Z,20.94
2022-08-12T02:11:20.032Z,20.93
2022-08-12T02:12:34.654Z,20.85
2022-08-12T02:13:55.354Z,20.87
2022-08-12T02:15:44.748Z,20.87
2022-08-12T02:16:49.308Z,20.88
2022-08-12T02:18:13.036Z,20.88
2022-08-12T02:19:44.241Z,20.83
2022-08-12T02:21:04.231Z,20.85
2022-08-12T02:22:27.529Z,20.82
2022-08-12T02:23:30.853Z,20.84
2022-08-12T02:24:34.427Z,20.80
2022-08-12T02:25:44.851Z,20.74
2022-08-12T02:26:50.577Z,20.72
2022-08-12T02:27:55.045Z,20.74
2022-08-12T02:28:57.393Z,20.78
2022-08-12T02:29:59.166Z,20.74
2022-08-12T02:31:08.957Z,20.70
2022-08-12T02:32:11.171Z,20.73
2022-08-12T02:33:13.276Z,20.79
2022-08-12T02:34:16.611Z,20.84
2022-08-12T02:35:21.267Z,20.85
2022-08-12T02:36:23.737Z,20.83
2022-08-12T02:37:28.821Z,20.76
2022-08-12T02:38:31.833Z,20.71
2022-08-12T02:39:36.040Z,20.66
2022-08-12T02:40:39.969Z,20.69
2022-08-12T02:41:47.080Z,20.78
2022-08-12T02:42:55.149Z,20.78
2022-08-12T02:44:00.889Z,20.79
2022-08-12T02:45:07.147Z,20.82
2022-08-12T02:46:14.438Z,20.77
2022-08-12T02:48:00.148Z,20.73
2022-08-12T02:48:58.289Z,20.66
2022-08-12T02:50:03.569Z,20.66
2022-08-12T02:51:09.391Z,20.66
2022-08-12T02:52:12.991Z,20.64
2022-08-12T02:53:15.205Z,20.62
2022-08-12T02:54:17.407Z,20.63
2022-08-12T02:55:34.103Z,20.58
2022-08-12T02:56:40.879Z,20.54
2022-08-12T02:57:44.621Z,20.57
2022-08-12T02:58:46.607Z,20.53
2022-08-12T02:59:49.834Z,20.50
2022-08-12T03:00:51.933Z,20.37
2022-08-12T03:01:56.222Z,20.30
2022-08-12T03:03:04.719Z,20.27
2022-08-12T03:04:15.401Z,20.24
2022-08-12T03:05:24.313Z,20.18
2022-08-12T03:06:32.197Z,20.18
2022-08-12T03:07:56.233Z,20.10
2022-08-12T03:09:03.932Z,20.04
2022-08-12T03:10:13.023Z,20.01
2022-08-12T03:11:27.200Z,20.04
2022-08-12T03:12:33.983Z,19.98
2022-08-12T03:13:41.542Z,20.00
2022-08-12T03:14:43.630Z,19.99
2022-08-12T03:15:45.793Z,20.01
2022-08-12T03:16:57.504Z,20.02
2022-08-12T03:18:27.232Z,20.00
2022-08-12T03:19:24.805Z,19.99
2022-08-12T03:20:28.523Z,20.01
2022-08-12T03:21:53.103Z,20.03
2022-08-12T03:22:59.128Z,20.10
2022-08-12T03:24:03.514Z,20.09
2022-08-12T03:25:06.133Z,20.02
2022-08-12T03:26:08.109Z,20.02
2022-08-12T03:27:12.938Z,20.05
2022-08-12T03:28:34.584Z,20.02
2022-08-12T03:29:50.001Z,20.05
2022-08-12T03:30:56.765Z,20.09
2022-08-12T03:32:03.816Z,20.04
2022-08-12T03:33:06.372Z,20.11
2022-08-12T03:34:11.168Z,20.16
2022-08-12T03:35:40.772Z,20.20
2022-08-12T03:36:41.794Z,20.26
2022-08-12T03:37:45.471Z,20.23
2022-08-12T03:39:00.928Z,20.28
2022-08-12T03:40:02.616Z,20.30
2022-08-12T03:41:29.993Z,20.32
2022-08-12T03:42:40.654Z,20.32
2022-08-12T03:44:17.031Z,20.30
2022-08-12T03:45:52.547Z,20.28
2022-08-12T03:47:23.337Z,20.23
2022-08-12T03:48:44.063Z,20.17
2022-08-12T03:50:04.642Z,20.13
2022-08-12T03:51:25.957Z,20.13
2022-08-12T03:52:46.468Z,20.13
2022-08-12T03:54:07.272Z,20.06
2022-08-12T03:55:27.392Z,20.01
2022-08-12T03:56:48.847Z,19.99
2022-08-12T03:58:09.226Z,20.04
2022-08-12T03:59:29.554Z,20.08
2022-08-12T04:00:33.188Z,20.12
2022-08-12T04:01:40.657Z,20.13
2022-08-12T04:02:42.741Z,20.14
2022-08-12T04:03:53.670Z,20.13
2022-08-12T04:04:56.015Z,20.13
2022-08-12T04:05:57.861Z,20.17
2022-08-12T04:07:01.547Z,20.16
2022-08-12T04:08:03.591Z,20.18
2022-08-12T04:09:15.803Z,20.15
2022-08-12T04:10:19.567Z,20.11
2022-08-12T04:11:46.904Z,20.15
2022-08-12T04:13:18.554Z,20.19
2022-08-12T04:14:20.682Z,20.17
2022-08-12T04:15:25.905Z,20.19
2022-08-12T04:16:27.741Z,20.20
2022-08-12T04:17:31.521Z,20.19
2022-08-12T04:18:33.537Z,20.20
2022-08-12T04:19:35.574Z,20.18
2022-08-12T04:20:37.448Z,20.21
2022-08-12T04:22:01.227Z,20.20
2022-08-12T04:23:02.466Z,20.20
2022-08-12T04:24:05.568Z,20.19
2022-08-12T04:25:10.753Z,20.19
2022-08-12T04:26:12.405Z,20.19
2022-08-12T04:27:13.974Z,20.22
2022-08-12T04:28:15.559Z,20.25
2022-08-12T04:29:19.558Z,20.30
2022-08-12T04:30:32.530Z,20.30
2022-08-12T04:31:41.467Z,20.35
2022-08-12T04:32:44.682Z,20.32
2022-08-12T04:33:47.126Z,20.33
2022-08-12T04:34:49.997Z,20.30
2022-08-12T04:35:51.812Z,20.32
2022-08-12T04:36:53.882Z,20.40
2022-08-12T04:37:58.905Z,20.47
2022-08-12T04:39:04.383Z,20.51
2022-08-12T04:40:07.210Z,20.59
2022-08-12T04:41:10.886Z,20.58
2022-08-12T04:42:13.084Z,20.52
2022-08-12T04:44:00.661Z,20.53
2022-08-12T04:44:36.369Z,20.60
2022-08-12T04:45:39.654Z,20.64
2022-08-12T04:46:42.264Z,20.67
2022-08-12T04:47:44.315Z,20.69
2022-08-12T04:48:47.155Z,20.74
2022-08-12T04:49:50.814Z,20.76
2022-08-12T04:50:52.492Z,20.81
2022-08-12T04:51:59.282Z,20.78
2022-08-12T04:53:02.064Z,20.76
2022-08-12T04:54:06.081Z,20.83
2022-08-12T04:55:10.559Z,20.87
2022-08-12T04:56:12.384Z,20.96
2022-08-12T04:57:14.278Z,21.01
2022-08-12T04:58:15.934Z,21.03
2022-08-12T04:59:46.387Z,21.03
2022-08-12T05:00:50.145Z,21.07
2022-08-12T05:01:52.666Z,21.08
2022-08-12T05:02:54.434Z,21.01
2022-08-12T05:03:57.689Z,21.01
2022-08-12T05:05:01.430Z,21.08
2022-08-12T05:06:03.078Z,21.08
2022-08-12T05:07:08.209Z,21.06
2022-08-12T05:08:16.292Z,21.13
2022-08-12T05:09:17.868Z,21.17
2022-08-12T05:10:21.825Z,21.21
2022-08-12T05:11:37.765Z,21.27
2022-08-12T05:12:59.824Z,21.31
2022-08-12T05:14:01.633Z,21.29
2022-08-12T05:15:19.811Z,21.29
2022-08-12T05:16:31.173Z,21.27
2022-08-12T05:17:35.943Z,21.27
2022-08-12T05:18:39.817Z,21.27
2022-08-12T05:19:43.425Z,21.27
2022-08-12T05:20:46.154Z,21.31
2022-08-12T05:21:47.999Z,21.31
2022-08-12T05:22:53.149Z,21.34
2022-08-12T05:24:00.617Z,21.27
2022-08-12T05:25:02.519Z,21.26
2022-08-12T05:26:06.161Z,21.26
2022-08-12T05:27:08.008Z,21.30
2022-08-12T05:28:09.689Z,21.29
2022-08-12T05:30:07.353Z,21.29
2022-08-12T05:30:34.994Z,21.32
2022-08-12T05:31:42.563Z,21.29
2022-08-12T05:32:49.904Z,21.34
2022-08-12T05:33:55.196Z,21.37
2022-08-12T05:34:56.886Z,21.37
2022-08-12T05:35:58.985Z,21.44
2022-08-12T05:37:03.891Z,21.39
2022-08-12T05:38:25.574Z,21.45
2022-08-12T05:39:27.383Z,21.42
2022-08-12T05:40:30.783Z,21.46
2022-08-12T05:41:35.398Z,21.53
2022-08-12T05:42:37.072Z,21.52
2022-08-12T05:43:38.873Z,21.52
2022-08-12T05:44:40.649Z,21.54
2022-08-12T05:45:44.839Z,21.58
2022-08-12T05:46:46.666Z,21.55
2022-08-12T05:47:53.711Z,21.48
2022-08-12T05:48:56.591Z,21.54
2022-08-12T05:49:59.410Z,21.59
2022-08-12T05:51:01.078Z,21.69
2022-08-12T05:52:02.859Z,21.72
2022-08-12T05:53:05.713Z,21.74
2022-08-12T05:54:07.375Z,21.77
2022-08-12T05:55:10.371Z,21.84
2022-08-12T05:56:34.265Z,21.79
2022-08-12T05:57:36.217Z,21.75
2022-08-12T05:58:37.789Z,21.74
2022-08-12T05:59:39.934Z,21.62
2022-08-12T06:00:42.506Z,21.59
2022-08-12T06:02:12.302Z,21.62
2022-08-12T06:03:08.270Z,21.59
2022-08-12T06:04:09.969Z,21.55
2022-08-12T06:05:12.945Z,21.55
2022-08-12T06:06:18.961Z,21.62
2022-08-12T06:07:59.449Z,21.65
2022-08-12T06:08:44.962Z,21.74
2022-08-12T06:09:46.554Z,21.80
2022-08-12T06:10:50.321Z,21.85
2022-08-12T06:12:04.739Z,21.90
2022-08-12T06:13:09.171Z,21.90
2022-08-12T06:14:11.800Z,21.94
2022-08-12T06:15:13.748Z,22.03
2022-08-12T06:16:17.459Z,22.10
2022-08-12T06:17:19.077Z,22.11
2022-08-12T06:18:20.784Z,22.08
2022-08-12T06:19:22.807Z,22.11
2022-08-12T06:20:29.403Z,22.21
2022-08-12T06:21:31.727Z,22.27
2022-08-12T06:22:35.132Z,22.27
2022-08-12T06:23:42.310Z,22.30
2022-08-12T06:24:44.353Z,22.32
2022-08-12T06:25:46.529Z,22.32
2022-08-12T06:26:48.127Z,22.28
2022-08-12T06:28:06.517Z,22.24
2022-08-12T06:29:10.016Z,22.19
2022-08-12T06:30:18.536Z,22.14
2022-08-12T06:31:27.183Z,22.15
2022-08-12T06:32:29.497Z,22.12
2022-08-12T06:34:00.662Z,22.13
2022-08-12T06:35:24.930Z,22.20
2022-08-12T06:36:22.793Z,22.28
2022-08-12T06:37:25.625Z,22.33
2022-08-12T06:38:30.626Z,22.31
2022-08-12T06:39:32.216Z,22.36
2022-08-12T06:40:52.805Z,22.38
2022-08-12T06:42:31.883Z,22.47
2022-08-12T06:44:05.582Z,22.59
2022-08-12T06:45:01.297Z,22.58
2022-08-12T06:46:06.135Z,22.61
2022-08-12T06:47:07.876Z,22.64
2022-08-12T06:48:11.109Z,22.74
2022-08-12T06:49:13.258Z,22.78
2022-08-12T06:50:16.685Z,22.81
2022-08-12T06:51:20.801Z,22.84
2022-08-12T06:52:24.923Z,22.91
2022-08-12T06:53:29.882Z,23.02
2022-08-12T06:54:33.264Z,23.14
2022-08-12T06:55:36.317Z,23.20
2022-08-12T06:57:02.948Z,23.26
2022-08-12T06:58:07.507Z,23.47
2022-08-12T06:59:14.148Z,23.57
2022-08-12T07:00:19.776Z,23.64
2022-08-12T07:01:21.576Z,23.71
2022-08-12T07:02:23.607Z,23.70
2022-08-12T07:03:29.779Z,23.66
2022-08-12T07:04:36.816Z,23.67
2022-08-12T07:05:40.124Z,23.73
2022-08-12T07:06:42.334Z,23.79
2022-08-12T07:07:47.960Z,23.81
2022-08-12T07:08:49.775Z,23.86
2022-08-12T07:10:00.159Z,23.92
2022-08-12T07:11:11.941Z,24.03
2022-08-12T07:12:18.862Z,24.13
2022-08-12T07:13:20.861Z,24.14
2022-08-12T07:14:22.605Z,24.10
2022-08-12T07:15:25.409Z,24.11
2022-08-12T07:16:28.385Z,24.23
2022-08-12T07:17:36.148Z,24.29
2022-08-12T07:18:38.392Z,24.35
2022-08-12T07:19:45.180Z,24.48
2022-08-12T07:20:53.038Z,24.62
2022-08-12T07:21:59.860Z,24.81
2022-08-12T07:23:08.852Z,25.01
2022-08-12T07:24:10.506Z,25.23
2022-08-12T07:25:31.061Z,25.43
2022-08-12T07:26:44.501Z,25.69
2022-08-12T07:27:46.766Z,25.92
2022-08-12T07:28:50.428Z,26.12
2022-08-12T07:30:03.464Z,26.07
2022-08-12T07:31:12.415Z,26.16
2022-08-12T07:32:23.658Z,26.48
2022-08-12T07:33:28.337Z,26.74
2022-08-12T07:34:29.939Z,26.84
2022-08-12T07:35:33.294Z,26.84
2022-08-12T07:36:35.428Z,26.75
2022-08-12T07:37:42.090Z,26.63
2022-08-12T07:38:47.929Z,26.65
2022-08-12T07:39:59.493Z,26.68
2022-08-12T07:41:16.236Z,26.74
2022-08-12T07:42:18.910Z,26.94
2022-08-12T07:43:20.581Z,26.96
2022-08-12T07:44:22.156Z,27.01
2022-08-12T07:45:24.592Z,27.06
2022-08-12T07:46:37.712Z,26.97
2022-08-12T07:47:43.525Z,26.78
2022-08-12T07:48:54.242Z,26.81
2022-08-12T07:50:06.842Z,26.87
2022-08-12T07:51:09.489Z,26.87
2022-08-12T07:52:11.077Z,26.95
2022-08-12T07:53:12.652Z,26.97
2022-08-12T07:54:14.352Z,26.84
2022-08-12T07:55:16.796Z,26.85
2022-08-12T07:56:18.925Z,26.95
2022-08-12T07:57:21.155Z,27.12
2022-08-12T07:58:26.150Z,27.33
2022-08-12T07:59:27.990Z,27.30
2022-08-12T08:00:32.679Z,27.26
2022-08-12T08:01:37.983Z,27.20
2022-08-12T08:02:39.928Z,27.26
2022-08-12T08:04:03.002Z,27.39
2022-08-12T08:05:05.129Z,27.58
2022-08-12T08:06:20.209Z,27.62
2022-08-12T08:07:22.945Z,27.54
2022-08-12T08:08:27.675Z,27.49
2022-08-12T08:09:32.407Z,27.49
2022-08-12T08:10:34.069Z,27.66
2022-08-12T08:11:54.209Z,27.87
2022-08-12T08:12:58.737Z,27.99
2022-08-12T08:14:04.339Z,28.05
2022-08-12T08:15:06.151Z,28.02
2022-08-12T08:16:08.739Z,27.96
2022-08-12T08:17:13.824Z,27.93
2022-08-12T08:18:26.248Z,28.03
2022-08-12T08:19:29.340Z,28.26
2022-08-12T08:20:41.106Z,28.38
2022-08-12T08:21:42.912Z,28.38
2022-08-12T08:22:45.256Z,28.31
2022-08-12T08:24:05.625Z,28.22
2022-08-12T08:25:34.995Z,28.15
2022-08-12T08:26:35.306Z,28.00
2022-08-12T08:27:47.121Z,28.06
2022-08-12T08:28:48.857Z,27.91
2022-08-12T08:29:50.969Z,27.91
2022-08-12T08:30:53.660Z,28.09
2022-08-12T08:31:58.451Z,28.28
2022-08-12T08:33:00.332Z,28.50
2022-08-12T08:34:33.869Z,28.70
2022-08-12T08:35:26.071Z,28.85
2022-08-12T08:36:32.831Z,28.82
2022-08-12T08:37:37.147Z,28.60
2022-08-12T08:38:41.725Z,28.57
2022-08-12T08:40:17.570Z,28.61
2022-08-12T08:42:15.825Z,28.88
2022-08-12T08:43:04.819Z,29.00
2022-08-12T08:44:06.842Z,29.18
2022-08-12T08:45:13.069Z,29.22
2022-08-12T08:46:14.829Z,29.30
2022-08-12T08:47:16.580Z,29.39
2022-08-12T08:48:18.798Z,29.51
2022-08-12T08:49:20.761Z,29.59
2022-08-12T08:50:22.448Z,29.69
2022-08-12T08:51:26.274Z,29.58
2022-08-12T08:52:39.289Z,29.35
2022-08-12T08:53:43.326Z,29.11
2022-08-12T08:54:53.593Z,28.99
2022-08-12T08:56:04.528Z,29.02
2022-08-12T08:57:08.482Z,28.84
2022-08-12T08:58:11.256Z,28.91
2022-08-12T08:59:14.109Z,29.00
2022-08-12T09:00:17.700Z,29.04
2022-08-12T09:01:21.689Z,29.04
2022-08-12T09:02:23.454Z,29.13
2022-08-12T09:05:07.391Z,29.20
2022-08-12T09:05:12.608Z,29.22
2022-08-12T09:06:08.451Z,29.32
2022-08-12T09:07:51.642Z,29.45
2022-08-12T09:08:41.112Z,29.58
2022-08-12T09:12:06.625Z,29.59
2022-08-12T09:13:07.903Z,29.74
2022-08-12T09:14:29.136Z,29.86
2022-08-12T09:15:35.456Z,29.90
2022-08-12T09:16:42.703Z,29.97
2022-08-12T09:18:08.487Z,30.03
2022-08-12T09:20:37.081Z,30.01
2022-08-12T09:21:54.982Z,30.05
2022-08-12T09:22:58.902Z,29.98
2022-08-12T09:25:26.416Z,29.79
2022-08-12T09:26:45.895Z,29.98
2022-08-12T09:28:03.716Z,30.13
2022-08-12T09:29:12.248Z,29.94
2022-08-12T09:30:17.941Z,30.05
2022-08-12T09:32:06.867Z,30.20
2022-08-12T09:33:05.978Z,30.14
2022-08-12T09:34:28.728Z,30.12
2022-08-12T09:35:43.051Z,30.13
2022-08-12T09:36:58.147Z,30.25
2022-08-12T09:38:03.408Z,30.31
2022-08-12T09:40:02.543Z,30.32
2022-08-12T09:41:03.788Z,30.16
2022-08-12T09:42:39.608Z,30.18
2022-08-12T09:44:38.233Z,29.69
2022-08-12T09:46:11.814Z,29.91
2022-08-12T09:47:16.641Z,30.04
2022-08-12T09:48:36.087Z,30.15
2022-08-12T09:49:47.469Z,30.30
2022-08-12T09:51:01.713Z,30.34
2022-08-12T09:52:03.650Z,30.29
2022-08-12T09:53:15.026Z,30.22
2022-08-12T09:54:31.419Z,30.25
2022-08-12T09:55:57.398Z,30.38
2022-08-12T09:58:07.406Z,30.57
2022-08-12T09:58:58.445Z,30.70
2022-08-12T10:00:15.621Z,30.76
2022-08-12T10:01:15.442Z,30.84
2022-08-12T10:02:44.155Z,30.82
2022-08-12T10:04:03.359Z,30.56
2022-08-12T10:05:09.248Z,30.63
2022-08-12T10:06:27.409Z,30.76
2022-08-12T10:07:39.808Z,30.81
2022-08-12T10:08:59.024Z,30.91
2022-08-12T10:10:01.027Z,30.99
2022-08-12T10:11:23.199Z,31.05
2022-08-12T10:12:43.651Z,31.05
2022-08-12T10:14:05.212Z,30.83
2022-08-12T10:15:07.472Z,30.64
2022-08-12T10:16:18.798Z,30.57
2022-08-12T10:17:24.184Z,30.54
2022-08-12T10:18:26.285Z,30.48
2022-08-12T10:19:36.558Z,30.42
2022-08-12T10:20:41.659Z,30.39
2022-08-12T10:21:45.330Z,30.28
2022-08-12T10:23:00.940Z,30.16
2022-08-12T10:24:20.310Z,30.15
2022-08-12T10:26:18.578Z,30.12
2022-08-12T10:27:20.669Z,30.15
2022-08-12T10:29:02.840Z,30.00
2022-08-12T10:30:40.087Z,29.91
2022-08-12T10:31:28.145Z,29.83
2022-08-12T10:32:59.602Z,29.84
2022-08-12T10:34:23.564Z,29.86
2022-08-12T10:35:37.823Z,29.94
2022-08-12T10:36:42.770Z,29.99
2022-08-12T10:38:38.444Z,29.96
2022-08-12T10:39:44.222Z,29.85
2022-08-12T10:40:54.775Z,29.56
2022-08-12T10:42:15.054Z,29.52
2022-08-12T10:43:55.478Z,29.41
2022-08-12T10:45:01.305Z,29.65
2022-08-12T10:46:02.866Z,29.65
2022-08-12T10:47:26.616Z,29.55
2022-08-12T10:48:41.183Z,29.72
2022-08-12T10:50:05.871Z,29.93
2022-08-12T10:52:05.422Z,30.06
2022-08-12T10:52:33.915Z,29.94
2022-08-12T10:53:44.075Z,29.92
2022-08-12T10:54:49.171Z,30.11
2022-08-12T10:55:56.472Z,30.35
2022-08-12T10:57:00.615Z,30.51
2022-08-12T10:58:27.622Z,30.68
2022-08-12T11:00:31.387Z,30.76
2022-08-12T11:01:26.218Z,30.90
2022-08-12T11:04:20.235Z,31.02
2022-08-12T11:04:28.008Z,31.01
2022-08-12T11:05:17.579Z,31.04
2022-08-12T11:07:07.718Z,30.92
2022-08-12T11:08:36.142Z,31.03
2022-08-12T11:09:10.306Z,31.10
2022-08-12T11:10:13.955Z,31.24
2022-08-12T11:12:07.895Z,31.16
2022-08-12T11:12:58.643Z,31.13
2022-08-12T11:14:02.124Z,31.12
2022-08-12T11:15:18.541Z,31.11
2022-08-12T11:16:22.774Z,31.15
2022-08-12T11:17:42.845Z,31.19
2022-08-12T11:18:46.521Z,31.20
2022-08-12T11:19:57.181Z,31.19
2022-08-12T11:20:59.662Z,31.22
2022-08-12T11:22:03.301Z,31.24
2022-08-12T11:23:24.969Z,31.30
2022-08-12T11:24:31.763Z,31.40
2022-08-12T11:25:53.715Z,31.36
2022-08-12T11:27:59.302Z,31.29
2022-08-12T11:29:05.846Z,31.22
2022-08-12T11:30:31.223Z,31.10
2022-08-12T11:31:55.869Z,30.89
2022-08-12T11:32:55.594Z,30.80
2022-08-12T11:34:05.191Z,30.72
2022-08-12T11:35:14.918Z,30.59
2022-08-12T11:36:21.768Z,30.52
2022-08-12T11:37:24.907Z,30.39
2022-08-12T11:38:28.217Z,30.29
2022-08-12T11:40:02.895Z,30.22
2022-08-12T11:40:51.393Z,30.15
2022-08-12T11:41:54.082Z,30.13
2022-08-12T11:43:19.176Z,30.12
2022-08-12T11:44:37.033Z,30.13
2022-08-12T11:45:46.845Z,30.20
2022-08-12T11:46:51.334Z,30.20
2022-08-12T11:47:55.860Z,30.19
2022-08-12T11:48:57.445Z,30.27
2022-08-12T11:49:59.224Z,30.37
2022-08-12T11:51:00.837Z,30.39
2022-08-12T11:52:03.849Z,30.40
2022-08-12T11:53:05.523Z,30.43
2022-08-12T11:54:29.661Z,30.50
2022-08-12T11:55:33.092Z,30.48
2022-08-12T11:56:38.114Z,30.64
2022-08-12T11:58:17.264Z,30.69
2022-08-12T12:02:05.356Z,30.29
2022-08-12T12:03:07.295Z,29.96
2022-08-12T12:04:08.935Z,29.97
2022-08-12T12:05:12.128Z,29.97
2022-08-12T12:06:16.221Z,29.96
2022-08-12T12:07:18.906Z,29.53
2022-08-12T12:08:38.852Z,29.37
2022-08-12T12:09:53.597Z,29.45
2022-08-12T12:10:55.599Z,29.50
2022-08-12T12:11:57.815Z,29.10
2022-08-12T12:12:59.465Z,28.77
2022-08-12T12:14:08.509Z,28.74
2022-08-12T12:15:13.729Z,28.85
2022-08-12T12:16:15.383Z,28.88
2022-08-12T12:17:17.049Z,28.65
2022-08-12T12:18:32.159Z,28.65
2022-08-12T12:19:39.875Z,28.62
2022-08-12T12:20:48.344Z,28.64
2022-08-12T12:21:49.992Z,28.55
2022-08-12T12:22:51.587Z,28.28
2022-08-12T12:23:54.391Z,28.34
2022-08-12T12:25:13.367Z,28.42
2022-08-12T12:26:35.060Z,28.58
2022-08-12T12:28:04.065Z,28.63
2022-08-12T12:30:04.069Z,28.60
2022-08-12T12:30:29.999Z,28.63
2022-08-12T12:32:10.261Z,28.53
2022-08-12T12:32:54.869Z,28.53
2022-08-12T12:33:58.122Z,28.72
2022-08-12T12:35:17.754Z,28.74
2022-08-12T12:36:29.275Z,28.93
2022-08-12T12:38:04.057Z,29.12
2022-08-12T12:38:53.799Z,29.25
2022-08-12T12:39:58.121Z,29.31
2022-08-12T12:41:00.047Z,29.27
2022-08-12T12:42:45.247Z,29.22
2022-08-12T12:43:43.084Z,29.18
2022-08-12T12:44:50.929Z,29.30
2022-08-12T12:45:55.278Z,29.41
2022-08-12T12:46:56.887Z,29.50
2022-08-12T12:48:09.641Z,29.50
2022-08-12T12:49:15.324Z,29.52
2022-08-12T12:50:35.142Z,29.60
2022-08-12T12:51:49.007Z,29.69
2022-08-12T12:52:51.985Z,29.60
2022-08-12T12:54:07.666Z,29.57
2022-08-12T12:55:11.270Z,29.66
2022-08-12T12:56:34.038Z,29.44
2022-08-12T12:58:00.580Z,29.32
2022-08-12T12:59:06.034Z,29.23
2022-08-12T13:00:15.317Z,29.29
2022-08-12T13:01:30.898Z,29.39
2022-08-12T13:02:40.299Z,29.42
2022-08-12T13:03:49.533Z,29.41
2022-08-12T13:04:51.271Z,29.43
2022-08-12T13:05:55.386Z,29.49
2022-08-12T13:06:58.268Z,29.50
2022-08-12T13:08:01.994Z,29.52
2022-08-12T13:09:04.012Z,29.55
2022-08-12T13:10:06.756Z,29.61
2022-08-12T13:11:08.496Z,29.57
2022-08-12T13:12:10.786Z,29.54
2022-08-12T13:14:10.323Z,29.58
2022-08-12T13:14:35.144Z,29.60
2022-08-12T13:15:45.411Z,29.61
2022-08-12T13:16:49.392Z,29.68
2022-08-12T13:18:02.172Z,29.71
2022-08-12T13:19:07.701Z,29.65
2022-08-12T13:20:10.655Z,29.70
2022-08-12T13:21:32.693Z,29.67
2022-08-12T13:22:35.312Z,29.74
2022-08-12T13:23:37.802Z,29.73
2022-08-12T13:24:40.441Z,29.75
2022-08-12T13:25:42.140Z,29.69
2022-08-12T13:26:45.854Z,29.64
2022-08-12T13:27:48.642Z,29.61
2022-08-12T13:28:55.852Z,29.56
2022-08-12T13:30:01.995Z,29.49
2022-08-12T13:31:06.491Z,29.46
2022-08-12T13:32:28.327Z,29.45
2022-08-12T13:34:28.636Z,29.48
2022-08-12T13:34:53.588Z,29.40
2022-08-12T13:36:11.155Z,29.41
2022-08-12T13:37:17.845Z,29.36
2022-08-12T13:38:26.564Z,29.35
2022-08-12T13:39:36.449Z,29.36
2022-08-12T13:40:40.163Z,29.37
2022-08-12T13:41:41.729Z,29.37
2022-08-12T13:42:45.077Z,29.42
2022-08-12T13:43:46.818Z,29.50
2022-08-12T13:44:53.748Z,29.55
2022-08-12T13:45:56.043Z,29.56
2022-08-12T13:46:58.718Z,29.56
2022-08-12T13:48:04.638Z,29.53
2022-08-12T13:49:07.796Z,29.55
2022-08-12T13:50:09.838Z,29.59
2022-08-12T13:51:11.824Z,29.63
2022-08-12T13:52:13.777Z,29.74
2022-08-12T13:53:23.925Z,29.77
2022-08-12T13:54:28.064Z,29.74
2022-08-12T13:55:30.976Z,29.75
2022-08-12T13:56:34.919Z,29.80
2022-08-12T13:57:44.597Z,29.76
2022-08-12T13:58:49.303Z,29.84
2022-08-12T14:00:00.334Z,29.87
2022-08-12T14:01:05.984Z,29.89
2022-08-12T14:02:13.406Z,30.01
2022-08-12T14:03:16.220Z,30.05
2022-08-12T14:04:19.084Z,30.07
2022-08-12T14:05:30.181Z,30.05
2022-08-12T14:06:41.113Z,30.13
2022-08-12T14:08:06.103Z,30.20
2022-08-12T14:09:17.885Z,30.19
2022-08-12T14:10:37.474Z,30.16
2022-08-12T14:11:39.146Z,30.21
2022-08-12T14:12:54.407Z,30.24
2022-08-12T14:14:05.731Z,30.31
2022-08-12T14:15:14.415Z,30.41
2022-08-12T14:16:37.674Z,30.40
2022-08-12T14:17:39.042Z,30.47
2022-08-12T14:18:42.195Z,30.50
2022-08-12T14:20:03.951Z,30.55
2022-08-12T14:21:10.129Z,30.51
2022-08-12T14:22:20.188Z,30.58
2022-08-12T14:24:04.754Z,30.48
2022-08-12T14:24:44.573Z,30.44
2022-08-12T14:25:47.329Z,30.19
2022-08-12T14:26:53.158Z,29.91
2022-08-12T14:28:06.665Z,29.71
2022-08-12T14:29:09.695Z,29.43
2022-08-12T14:30:24.098Z,29.58
2022-08-12T14:31:32.194Z,29.63
2022-08-12T14:32:35.835Z,29.55
2022-08-12T14:33:47.670Z,29.30
2022-08-12T14:34:51.363Z,29.09
2022-08-12T14:35:54.129Z,28.77
2022-08-12T14:36:56.415Z,28.31
2022-08-12T14:37:59.232Z,28.18
2022-08-12T14:39:04.762Z,28.15
2022-08-12T14:40:07.414Z,28.23
2022-08-12T14:41:11.904Z,28.17
2022-08-12T14:42:16.264Z,28.16
2022-08-12T14:43:20.017Z,28.13
2022-08-12T14:44:59.512Z,28.05
2022-08-12T14:45:49.857Z,28.04
2022-08-12T14:46:55.779Z,28.00
2022-08-12T14:47:58.987Z,28.04
2022-08-12T14:49:11.475Z,28.13
2022-08-12T14:50:58.547Z,28.20
2022-08-12T14:52:55.558Z,28.28
2022-08-12T14:57:20.465Z,28.07
2022-08-12T14:59:20.172Z,28.19
2022-08-12T15:00:45.958Z,28.14
2022-08-12T15:01:54.515Z,28.22
2022-08-12T15:02:56.513Z,28.21
2022-08-12T15:04:02.310Z,28.14
2022-08-12T15:05:04.361Z,28.17
2022-08-12T15:06:39.294Z,28.13
2022-08-12T15:07:33.405Z,28.08
2022-08-12T15:08:50.574Z,28.06
2022-08-12T15:09:52.786Z,28.05
2022-08-12T15:10:55.308Z,28.08
2022-08-12T15:12:03.187Z,28.04
2022-08-12T15:13:07.556Z,28.01
2022-08-12T15:14:09.615Z,28.04
2022-08-12T15:15:11.622Z,28.05
2022-08-12T15:16:13.554Z,28.08
2022-08-12T15:17:38.048Z,28.14
2022-08-12T15:18:54.979Z,28.13